Embden, North Dakota
Current Conditions -  °F | °C
As of 4:53 AM on Tuesday 21 Oct 2014 (Local Time) from KFAR Reporting Station
Clear Clear  
Wind Chill: 37°   Ceiling: Unl
Heat Index: 44°   Visibility: 10mi
Dew Point: 38°   Wind: 15mph
Humidity: 79%   Direction: 140°SE
Pressure: 30.05"   Gusts: NA
Location:  46.8763°N, 97.4084°W
Report Text: KFAR 210953Z 14013KT 10SM CLR 07/03 A3005 RMK AO2 SLP181 T00670033
Loading
Personal Weather Stations






























Interactive Weather Map
Tropical Storm Tracking
New forecast layout! Learn more

10-Day Weather Forecast

Advertisements
Track Severe Weather on mobile